Terminal Aerodrome Forecast
Issued by NWS

Current Version | Previous Version | Graphics & Text | Print | Product List | Glossary On
Versions: 1 2 3 4 5 6 7 8 9 10 11 12 13 14 15 16 17 18 19 20 21 22 23 24
382
FTUS41 KRLX 220156 AAA
TAFCKB
TAF AMD
KCKB 220156Z 2202/2224 24007KT P6SM -SHRA BKN008
     FM220400 28005KT 5SM BR OVC003
     FM221000 33006KT 5SM BR OVC007
     FM221300 33006KT P6SM BKN010
     FM221500 33006KT P6SM SCT020
     FM221700 33006KT P6SM SHRA BKN030=

USA.gov is the U.S. government's official web portal to all federal, state and local government web resources and services.